createdAt,value
2022-11-02T00:03:54.193Z,2.70
2022-11-02T00:08:19.385Z,2.30
2022-11-02T00:12:45.333Z,2.20
2022-11-02T00:17:10.574Z,2.10
2022-11-02T00:21:36.870Z,2.03
2022-11-02T00:30:28.073Z,2.00
2022-11-02T00:43:43.737Z,2.43
2022-11-02T00:48:08.977Z,2.10
2022-11-02T00:52:34.142Z,2.50
2022-11-02T01:01:24.626Z,1.60
2022-11-02T01:05:49.991Z,2.40
2022-11-02T01:10:15.214Z,2.47
2022-11-02T01:14:40.445Z,1.90
2022-11-02T01:19:05.640Z,1.80
2022-11-02T01:23:37.983Z,2.00
2022-11-02T01:28:03.367Z,2.30
2022-11-02T01:32:31.915Z,2.33
2022-11-02T01:36:57.113Z,2.13
2022-11-02T01:41:22.543Z,1.80
2022-11-02T01:45:49.367Z,2.10
2022-11-02T01:50:27.535Z,1.87
2022-11-02T01:55:07.101Z,1.70
2022-11-02T01:59:39.397Z,1.83
2022-11-02T02:04:05.487Z,1.90
2022-11-02T02:08:32.294Z,1.87
2022-11-02T02:27:13.074Z,1.80
2022-11-02T02:32:06.104Z,1.80
2022-11-02T02:36:49.377Z,1.67
2022-11-02T02:41:31.117Z,1.77
2022-11-02T02:46:06.736Z,1.60
2022-11-02T02:50:47.064Z,1.80
2022-11-02T02:55:26.552Z,1.93
2022-11-02T02:59:52.045Z,1.60
2022-11-02T03:04:17.269Z,1.87
2022-11-02T03:08:49.167Z,2.13
2022-11-02T03:13:18.733Z,2.03
2022-11-02T03:17:55.864Z,1.90
2022-11-02T03:23:04.240Z,2.40
2022-11-02T03:27:53.170Z,2.10
2022-11-02T03:32:29.374Z,1.90
2022-11-02T03:37:20.355Z,2.07
2022-11-02T03:41:47.848Z,2.23
2022-11-02T03:46:15.466Z,1.80
2022-11-02T03:50:47.190Z,2.00
2022-11-02T03:55:31.241Z,2.30
2022-11-02T04:00:24.737Z,1.40
2022-11-02T04:04:52.488Z,1.73
2022-11-02T04:09:18.014Z,2.13
2022-11-02T04:14:01.647Z,2.00
2022-11-02T04:18:45.254Z,2.03
2022-11-02T04:23:28.814Z,1.90
2022-11-02T04:27:54.145Z,1.80
2022-11-02T04:32:39.616Z,1.93
2022-11-02T04:37:24.846Z,2.00
2022-11-02T04:41:50.022Z,1.97
2022-11-02T04:46:15.294Z,1.77
2022-11-02T04:50:40.568Z,2.28
2022-11-02T04:55:06.723Z,2.60
2022-11-02T04:59:31.942Z,1.83
2022-11-02T05:03:57.479Z,1.53
2022-11-02T05:08:23.034Z,2.30
2022-11-02T05:12:48.293Z,1.90
2022-11-02T05:17:14.594Z,1.87
2022-11-02T05:21:39.836Z,2.07
2022-11-02T05:26:09.308Z,1.80
2022-11-02T05:30:34.535Z,1.53
2022-11-02T05:34:59.768Z,1.73
2022-11-02T05:39:24.997Z,2.17
2022-11-02T05:43:50.219Z,2.30
2022-11-02T05:48:17.276Z,2.00
2022-11-02T05:52:42.522Z,1.83
2022-11-02T05:57:07.895Z,2.43
2022-11-02T06:01:33.223Z,2.07
2022-11-02T06:06:04.822Z,2.30
2022-11-02T06:10:31.293Z,2.20
2022-11-02T06:14:56.560Z,1.80
2022-11-02T06:19:21.880Z,2.20
2022-11-02T06:23:48.632Z,2.20
2022-11-02T06:28:13.832Z,2.60
2022-11-02T06:32:39.175Z,2.17
2022-11-02T06:37:04.393Z,1.70
2022-11-02T06:41:29.598Z,2.50
2022-11-02T06:45:58.759Z,1.90
2022-11-02T06:50:25.238Z,2.20
2022-11-02T06:54:50.539Z,2.20
2022-11-02T06:59:15.852Z,2.13
2022-11-02T07:03:41.192Z,1.97
2022-11-02T07:08:06.528Z,2.20
2022-11-02T07:12:32.759Z,2.47
2022-11-02T07:16:58.046Z,2.20
2022-11-02T07:21:23.393Z,2.70
2022-11-02T07:25:48.842Z,1.83
2022-11-02T07:30:14.498Z,1.70
2022-11-02T07:34:39.709Z,2.07
2022-11-02T07:39:05.633Z,1.57
2022-11-02T07:43:30.876Z,2.07
2022-11-02T07:47:56.220Z,2.20
2022-11-02T07:52:21.599Z,2.97
2022-11-02T07:56:47.007Z,1.90
2022-11-02T08:01:12.317Z,2.03
2022-11-02T08:05:41.396Z,1.87
2022-11-02T08:10:07.400Z,2.17
2022-11-02T08:14:32.634Z,2.00
2022-11-02T08:18:59.317Z,2.30
2022-11-02T08:23:26.144Z,2.00
2022-11-02T08:27:51.543Z,1.50
2022-11-02T08:32:16.808Z,2.30
2022-11-02T08:36:42.312Z,1.73
2022-11-02T08:41:07.610Z,2.27
2022-11-02T08:46:08.258Z,1.67
2022-11-02T08:50:24.481Z,1.63
2022-11-02T08:54:49.811Z,1.67
2022-11-02T08:59:15.222Z,2.67
2022-11-02T09:03:41.499Z,1.90
2022-11-02T09:08:11.867Z,2.00
2022-11-02T09:12:37.199Z,2.07
2022-11-02T09:17:02.437Z,1.67
2022-11-02T09:21:27.664Z,2.33
2022-11-02T09:25:53.618Z,2.07
2022-11-02T09:30:18.887Z,2.10
2022-11-02T09:39:09.568Z,1.40
2022-11-02T09:43:55.855Z,2.33
2022-11-02T09:48:31.889Z,1.53
2022-11-02T09:53:03.362Z,1.80
2022-11-02T09:57:33.460Z,1.50
2022-11-02T10:30:21.213Z,1.60
2022-11-02T10:34:58.633Z,1.67
2022-11-02T10:39:59.037Z,1.40
2022-11-02T10:45:04.488Z,1.90
2022-11-02T10:50:36.033Z,2.10
2022-11-02T10:55:01.262Z,2.03
2022-11-02T10:59:26.973Z,2.13
2022-11-02T11:04:12.141Z,2.20
2022-11-02T11:08:44.223Z,1.80
2022-11-02T14:26:32.559Z,1.70
2022-11-02T14:31:06.983Z,1.07
2022-11-02T14:35:52.516Z,1.20
2022-11-02T14:40:41.890Z,1.13
2022-11-02T14:45:36.197Z,1.50
2022-11-02T14:50:17.660Z,1.40
2022-11-02T14:55:18.335Z,1.60
2022-11-02T14:59:50.781Z,1.67
2022-11-02T15:04:16.020Z,2.00
2022-11-02T15:09:00.767Z,1.87
2022-11-02T15:13:39.102Z,1.80
2022-11-02T15:18:31.474Z,2.37
2022-11-02T15:23:31.282Z,1.87
2022-11-02T15:28:05.336Z,1.87
2022-11-02T15:32:37.953Z,2.00
2022-11-02T15:37:05.070Z,1.50
2022-11-02T15:42:12.269Z,1.93
2022-11-02T15:47:01.895Z,1.67
2022-11-02T15:51:56.337Z,2.03
2022-11-02T15:56:54.866Z,1.80
2022-11-02T16:01:22.539Z,2.07
2022-11-02T16:05:49.956Z,1.97
2022-11-02T16:10:35.680Z,2.57
2022-11-02T16:15:12.663Z,2.47
2022-11-02T16:19:37.875Z,2.10
2022-11-02T16:24:03.216Z,2.17
2022-11-02T16:28:33.911Z,2.03
2022-11-02T16:33:01.064Z,1.87
2022-11-02T16:37:26.277Z,2.50
2022-11-02T16:41:57.442Z,1.97
2022-11-02T16:46:32.333Z,1.90
2022-11-02T16:51:14.797Z,2.70
2022-11-02T16:55:48.395Z,3.77
2022-11-02T17:00:20.134Z,4.90
2022-11-02T17:04:48.351Z,6.00
2022-11-02T17:09:32.523Z,5.43
2022-11-02T17:14:02.477Z,5.57
2022-11-02T17:18:29.527Z,5.90
2022-11-02T17:23:10.740Z,6.27
2022-11-02T17:27:39.362Z,12.73
2022-11-02T17:32:15.407Z,12.90
2022-11-02T18:30:20.655Z,4.70
2022-11-02T19:28:14.685Z,4.20
2022-11-02T19:32:40.278Z,3.87
2022-11-02T19:37:07.115Z,3.70
2022-11-02T19:41:32.430Z,5.07
2022-11-02T19:46:02.925Z,4.83
2022-11-02T19:50:28.507Z,4.47
2022-11-02T20:39:38.984Z,5.73
2022-11-02T20:44:04.391Z,3.70
2022-11-02T20:48:30.436Z,3.33
2022-11-02T20:52:57.939Z,3.50
2022-11-02T20:57:23.404Z,3.10
2022-11-02T21:01:49.181Z,3.20
2022-11-02T21:06:14.728Z,2.60
2022-11-02T21:10:40.649Z,2.90
2022-11-02T21:15:07.166Z,2.97
2022-11-02T21:19:32.966Z,3.60
2022-11-02T21:23:58.631Z,2.70
2022-11-02T21:28:29.607Z,3.13
2022-11-02T21:32:55.099Z,2.40
2022-11-02T21:37:20.372Z,3.07
2022-11-02T21:41:45.709Z,3.33
2022-11-02T21:46:11.455Z,3.10
2022-11-02T21:50:37.159Z,2.87
2022-11-02T21:55:06.512Z,3.17
2022-11-02T21:59:32.049Z,3.60
2022-11-02T22:03:57.684Z,3.40
2022-11-02T22:08:49.682Z,2.80
2022-11-02T22:13:33.012Z,3.10
2022-11-02T22:17:58.244Z,3.03
2022-11-02T22:22:23.958Z,3.20
2022-11-02T22:26:50.780Z,4.60
2022-11-02T23:57:11.482Z,3.23
